createdAt,value
2022-09-07T00:00:37.965Z,5.65
2022-09-07T00:03:05.887Z,6.07
2022-09-07T00:05:33.479Z,5.15
2022-09-07T00:08:00.808Z,5.93
2022-09-07T00:10:28.100Z,5.00
2022-09-07T00:12:55.223Z,5.18
2022-09-07T00:15:23.846Z,5.15
2022-09-07T00:17:50.922Z,5.30
2022-09-07T00:20:18.219Z,4.65
2022-09-07T00:22:46.415Z,5.00
2022-09-07T00:25:13.520Z,5.05
2022-09-07T00:27:41.479Z,5.32
2022-09-07T00:30:09.021Z,5.10
2022-09-07T00:32:36.068Z,4.70
2022-09-07T00:35:03.473Z,4.50
2022-09-07T00:37:30.631Z,4.43
2022-09-07T00:39:57.863Z,4.43
2022-09-07T00:42:25.045Z,4.22
2022-09-07T00:45:10.518Z,4.28
2022-09-07T00:48:18.306Z,4.55
2022-09-07T00:50:51.397Z,4.20
2022-09-07T00:53:23.888Z,3.83
2022-09-07T00:55:52.971Z,3.30
2022-09-07T00:58:22.220Z,3.53
2022-09-07T01:00:51.058Z,3.85
2022-09-07T01:03:23.228Z,3.75
2022-09-07T01:05:59.577Z,3.95
2022-09-07T01:08:27.275Z,3.90
2022-09-07T01:10:55.699Z,3.90
2022-09-07T01:13:23.227Z,4.32
2022-09-07T01:16:27.663Z,4.00
2022-09-07T01:19:09.307Z,4.28
2022-09-07T01:21:57.821Z,3.90
2022-09-07T01:24:42.876Z,4.22
2022-09-07T01:27:47.317Z,4.07
2022-09-07T01:30:23.280Z,3.92
2022-09-07T01:33:09.267Z,4.00
2022-09-07T01:35:48.318Z,4.13
2022-09-07T01:38:27.997Z,4.00
2022-09-07T01:41:01.167Z,4.07
2022-09-07T01:43:45.644Z,4.00
2022-09-07T01:46:21.348Z,3.80
2022-09-07T01:48:53.287Z,3.60
2022-09-07T01:51:23.624Z,3.83
2022-09-07T01:53:57.021Z,3.20
2022-09-07T01:56:31.754Z,4.25
2022-09-07T01:59:10.150Z,4.13
2022-09-07T02:01:45.958Z,3.33
2022-09-07T02:04:38.756Z,3.88
2022-09-07T02:07:17.946Z,3.83
2022-09-07T02:10:05.877Z,4.25
2022-09-07T02:12:51.180Z,4.00
2022-09-07T02:15:25.280Z,4.03
2022-09-07T02:17:58.746Z,3.50
2022-09-07T02:20:31.612Z,4.30
2022-09-07T02:23:02.897Z,4.10
2022-09-07T02:25:38.102Z,4.00
2022-09-07T02:28:10.759Z,4.10
2022-09-07T02:30:38.303Z,3.50
2022-09-07T02:33:06.196Z,4.88
2022-09-07T02:35:34.128Z,3.72
2022-09-07T02:38:05.138Z,4.00
2022-09-07T02:40:32.788Z,3.90
2022-09-07T02:43:02.726Z,3.75
2022-09-07T02:45:52.303Z,3.97
2022-09-07T02:48:45.341Z,3.57
2022-09-07T02:51:40.947Z,4.15
2022-09-07T02:54:44.164Z,3.88
2022-09-07T02:57:26.600Z,4.15
2022-09-07T03:00:09.900Z,4.05
2022-09-07T03:02:58.426Z,3.70
2022-09-07T03:05:55.416Z,4.07
2022-09-07T03:08:32.357Z,4.00
2022-09-07T03:11:00.241Z,3.38
2022-09-07T03:13:29.690Z,3.80
2022-09-07T03:15:57.259Z,3.90
2022-09-07T03:18:25.754Z,3.58
2022-09-07T03:20:53.707Z,3.70
2022-09-07T03:23:20.966Z,3.28
2022-09-07T03:25:49.357Z,3.40
2022-09-07T03:28:16.508Z,3.58
2022-09-07T03:30:44.669Z,3.90
2022-09-07T03:33:12.117Z,3.75
2022-09-07T03:35:39.236Z,3.15
2022-09-07T03:38:06.280Z,3.03
2022-09-07T03:40:33.346Z,3.65
2022-09-07T03:43:00.427Z,3.55
2022-09-07T03:45:27.504Z,3.13
2022-09-07T03:47:54.598Z,3.55
2022-09-07T03:50:21.686Z,3.58
2022-09-07T03:52:48.746Z,3.30
2022-09-07T03:55:15.886Z,3.35
2022-09-07T03:57:43.794Z,3.08
2022-09-07T04:00:11.628Z,3.33
2022-09-07T04:02:41.921Z,3.53
2022-09-07T04:05:09.495Z,3.20
2022-09-07T04:07:36.867Z,3.28
2022-09-07T04:10:04.397Z,3.65
2022-09-07T04:12:31.473Z,3.63
2022-09-07T04:14:58.578Z,3.30
2022-09-07T04:17:25.697Z,3.40
2022-09-07T04:19:52.686Z,2.92
2022-09-07T04:22:19.778Z,3.55
2022-09-07T04:24:46.834Z,3.35
2022-09-07T04:27:13.958Z,3.13
2022-09-07T04:29:41.017Z,3.38
2022-09-07T04:32:11.391Z,3.40
2022-09-07T04:34:40.683Z,3.47
2022-09-07T04:37:07.813Z,3.33
2022-09-07T04:39:35.628Z,3.55
2022-09-07T04:42:02.789Z,3.97
2022-09-07T04:44:29.798Z,3.40
2022-09-07T04:46:57.047Z,3.65
2022-09-07T04:49:24.109Z,3.42
2022-09-07T04:51:51.230Z,3.80
2022-09-07T04:54:18.280Z,3.45
2022-09-07T04:56:45.470Z,3.45
2022-09-07T04:59:12.730Z,3.45
2022-09-07T05:01:40.203Z,3.85
2022-09-07T05:04:07.267Z,3.70
2022-09-07T05:06:34.781Z,3.47
2022-09-07T05:09:01.906Z,3.83
2022-09-07T05:11:30.103Z,3.40
2022-09-07T05:13:59.039Z,3.60
2022-09-07T05:16:27.071Z,3.88
2022-09-07T05:19:01.363Z,3.63
2022-09-07T05:21:34.078Z,4.10
2022-09-07T05:24:01.641Z,3.50
2022-09-07T05:26:30.854Z,3.67
2022-09-07T05:31:48.367Z,3.13
2022-09-07T05:34:31.564Z,3.35
2022-09-07T05:36:59.617Z,3.10
2022-09-07T05:39:27.052Z,3.58
2022-09-07T05:41:54.363Z,3.30
2022-09-07T05:47:09.054Z,2.88
2022-09-07T05:49:36.094Z,2.95
2022-09-07T05:52:03.725Z,3.20
2022-09-07T05:54:30.754Z,3.25
2022-09-07T05:56:57.790Z,3.42
2022-09-07T05:59:24.944Z,3.58
2022-09-07T06:01:52.011Z,3.25
2022-09-07T06:04:19.276Z,3.42
2022-09-07T06:07:04.558Z,3.20
2022-09-07T06:09:33.667Z,2.95
2022-09-07T06:12:00.818Z,3.03
2022-09-07T06:14:27.866Z,3.00
2022-09-07T06:16:54.956Z,3.33
2022-09-07T06:19:22.114Z,3.17
2022-09-07T06:21:49.206Z,3.45
2022-09-07T06:24:16.392Z,3.28
2022-09-07T06:26:43.594Z,3.20
2022-09-07T06:29:10.810Z,3.35
2022-09-07T06:34:25.843Z,2.70
2022-09-07T06:36:53.105Z,2.70
2022-09-07T06:39:20.170Z,2.90
2022-09-07T06:42:02.582Z,3.00
2022-09-07T06:44:31.806Z,2.40
2022-09-07T06:51:56.454Z,2.50
2022-09-07T06:57:10.769Z,2.67
2022-09-07T06:59:38.671Z,2.13
2022-09-07T07:02:07.296Z,1.92
2022-09-07T07:04:40.322Z,2.28
2022-09-07T07:07:14.680Z,1.83
2022-09-07T07:09:42.280Z,1.92
2022-09-07T07:12:10.755Z,2.00
2022-09-07T07:14:39.864Z,1.55
2022-09-07T07:17:10.527Z,1.90
2022-09-07T07:19:37.672Z,1.83
2022-09-07T07:22:18.703Z,1.83
2022-09-07T07:24:51.909Z,1.75
2022-09-07T07:27:19.112Z,1.33
2022-09-07T07:29:46.331Z,1.83
2022-09-07T07:32:13.456Z,1.60
2022-09-07T07:34:40.525Z,1.33
2022-09-07T07:37:07.534Z,1.73
2022-09-07T07:42:22.122Z,1.50
2022-09-07T07:44:49.232Z,1.58
2022-09-07T07:47:16.382Z,1.35
2022-09-07T07:49:43.547Z,1.17
2022-09-07T07:54:57.504Z,1.20
2022-09-07T07:57:24.646Z,1.23
2022-09-07T07:59:52.085Z,1.42
2022-09-07T08:02:19.190Z,1.23
2022-09-07T08:04:46.330Z,1.00
2022-09-07T08:07:13.510Z,1.13
2022-09-07T08:09:41.930Z,1.10
2022-09-07T08:12:11.521Z,1.08
2022-09-07T08:14:42.935Z,1.55
2022-09-07T08:17:14.940Z,1.40
2022-09-07T08:19:42.339Z,1.25
2022-09-07T08:22:10.974Z,1.10
2022-09-07T08:24:38.100Z,1.00
2022-09-07T08:27:05.516Z,0.90
2022-09-07T08:29:35.207Z,1.15
2022-09-07T08:32:05.202Z,1.10
2022-09-07T08:34:35.226Z,1.42
2022-09-07T08:37:02.260Z,1.00
2022-09-07T08:39:30.098Z,1.23
2022-09-07T08:42:03.495Z,1.40
2022-09-07T08:44:49.030Z,1.27
2022-09-07T08:47:32.264Z,1.20
2022-09-07T08:50:33.973Z,1.20
2022-09-07T08:53:14.604Z,1.10
2022-09-07T08:55:49.561Z,1.23
2022-09-07T08:58:48.216Z,1.40
2022-09-07T09:01:33.290Z,0.95
2022-09-07T09:04:17.904Z,1.10
2022-09-07T09:07:00.861Z,1.23
2022-09-07T09:09:52.038Z,1.30
2022-09-07T09:12:37.841Z,1.23
2022-09-07T09:15:32.410Z,0.90
2022-09-07T09:18:22.280Z,1.15
2022-09-07T09:20:52.523Z,1.10
2022-09-07T09:23:24.099Z,1.13
2022-09-07T09:25:56.860Z,1.00
2022-09-07T09:28:26.559Z,0.93
2022-09-07T09:30:56.063Z,1.15
2022-09-07T09:33:26.229Z,1.48
2022-09-07T09:35:56.535Z,1.30
2022-09-07T09:40:58.448Z,1.00
2022-09-07T09:43:32.725Z,1.08
2022-09-07T09:46:17.463Z,1.33
2022-09-07T09:48:53.867Z,0.88
2022-09-07T09:54:25.494Z,1.20
2022-09-07T09:56:53.000Z,1.10
2022-09-07T10:05:31.351Z,0.95
2022-09-07T10:07:58.753Z,0.85
2022-09-07T10:10:27.699Z,0.80
2022-09-07T10:12:56.164Z,1.13
2022-09-07T10:15:41.897Z,1.02
2022-09-07T10:18:30.377Z,0.80
2022-09-07T10:21:21.049Z,0.88
2022-09-07T10:23:49.333Z,1.33
2022-09-07T10:26:32.301Z,1.00
2022-09-07T10:29:13.183Z,1.15
2022-09-07T10:32:06.613Z,0.98
2022-09-07T10:34:56.868Z,0.88
2022-09-07T10:37:53.111Z,0.77
2022-09-07T10:40:43.008Z,0.90
2022-09-07T10:43:22.143Z,1.08
2022-09-07T10:46:04.838Z,0.90
2022-09-07T10:48:36.097Z,0.70
2022-09-07T10:51:14.565Z,1.00
2022-09-07T10:57:04.075Z,0.80
2022-09-07T11:03:30.118Z,0.90
2022-09-07T11:06:15.520Z,1.00
2022-09-07T11:09:17.348Z,0.90
2022-09-07T11:12:04.282Z,0.80
2022-09-07T11:14:55.050Z,0.82
2022-09-07T11:20:09.911Z,0.80
2022-09-07T11:22:47.722Z,0.80
2022-09-07T11:25:35.607Z,0.80
2022-09-07T11:28:13.422Z,0.77
2022-09-07T11:30:50.051Z,0.82
2022-09-07T11:33:24.989Z,0.60
2022-09-07T11:36:02.438Z,0.77
2022-09-07T11:38:39.537Z,0.90
2022-09-07T11:41:15.453Z,0.88
2022-09-07T11:43:47.312Z,0.80
2022-09-07T11:46:24.283Z,0.88
2022-09-07T11:48:54.906Z,1.23
2022-09-07T11:51:39.890Z,0.75
2022-09-07T11:54:43.992Z,0.70
2022-09-07T11:57:38.895Z,0.77
2022-09-07T12:00:11.408Z,0.73
2022-09-07T12:03:17.973Z,0.93
2022-09-07T12:06:25.778Z,1.10
2022-09-07T12:09:07.922Z,0.70
2022-09-07T12:12:12.586Z,0.77
2022-09-07T12:15:04.380Z,0.60
2022-09-07T12:18:01.078Z,0.90
2022-09-07T12:20:48.895Z,0.70
2022-09-07T12:23:15.862Z,0.90
2022-09-07T12:25:45.228Z,0.77
2022-09-07T12:28:24.431Z,1.10
2022-09-07T12:31:05.933Z,0.70
2022-09-07T12:33:36.044Z,0.85
2022-09-07T12:36:28.935Z,0.90
2022-09-07T12:39:20.980Z,1.17
2022-09-07T12:42:31.948Z,0.80
2022-09-07T12:47:30.118Z,0.82
2022-09-07T12:50:06.328Z,1.25
2022-09-07T12:52:36.257Z,1.20
2022-09-07T12:56:15.504Z,1.20
2022-09-07T12:58:25.281Z,1.23
2022-09-07T13:01:10.792Z,1.10
2022-09-07T13:03:56.377Z,1.23
2022-09-07T13:07:10.745Z,1.17
2022-09-07T13:09:41.919Z,1.20
2022-09-07T13:15:44.009Z,1.10
2022-09-07T13:18:32.640Z,1.15
2022-09-07T13:21:08.396Z,0.93
2022-09-07T13:23:49.608Z,0.98
2022-09-07T13:26:55.076Z,1.25
2022-09-07T13:29:31.736Z,0.90
2022-09-07T13:33:07.938Z,1.15
2022-09-07T13:35:18.418Z,1.10
2022-09-07T13:37:59.239Z,1.30
2022-09-07T13:40:32.490Z,1.27
2022-09-07T13:43:01.068Z,0.88
2022-09-07T13:45:36.899Z,1.10
2022-09-07T13:48:25.449Z,1.38
2022-09-07T13:51:17.155Z,0.90
2022-09-07T13:53:56.315Z,0.98
2022-09-07T13:56:47.970Z,1.10
2022-09-07T13:59:21.725Z,1.20
2022-09-07T14:01:50.778Z,0.90
2022-09-07T14:04:20.617Z,1.02
2022-09-07T14:06:47.650Z,0.90
2022-09-07T14:09:16.279Z,1.30
2022-09-07T14:11:56.879Z,1.00
2022-09-07T14:14:29.737Z,1.00
2022-09-07T14:17:04.763Z,1.02
2022-09-07T14:19:42.576Z,0.95
2022-09-07T14:22:22.056Z,1.30
2022-09-07T14:24:53.499Z,1.00
2022-09-07T14:27:39.558Z,0.90
2022-09-07T14:30:19.732Z,1.00
2022-09-07T14:32:53.400Z,0.93
2022-09-07T14:35:23.581Z,1.10
2022-09-07T14:37:51.269Z,1.30
2022-09-07T14:40:22.799Z,0.82
2022-09-07T14:42:51.216Z,1.00
2022-09-07T14:45:31.066Z,0.90
2022-09-07T14:47:58.608Z,0.77
2022-09-07T14:50:25.524Z,1.13
2022-09-07T14:55:44.479Z,1.10
2022-09-07T14:58:14.235Z,1.02
2022-09-07T15:03:59.286Z,1.02
2022-09-07T15:09:36.415Z,0.82
2022-09-07T15:12:09.437Z,1.20
2022-09-07T15:14:36.626Z,1.27
2022-09-07T15:19:51.345Z,0.90
2022-09-07T15:22:19.113Z,1.20
2022-09-07T15:24:49.992Z,1.05
2022-09-07T15:27:21.928Z,1.23
2022-09-07T15:29:49.073Z,1.10
2022-09-07T15:32:18.196Z,1.08
2022-09-07T15:34:45.578Z,1.45
2022-09-07T15:40:01.473Z,1.13
2022-09-07T15:45:16.628Z,1.40
2022-09-07T15:47:48.171Z,1.27
2022-09-07T15:50:18.699Z,1.48
2022-09-07T15:52:46.378Z,1.35
2022-09-07T15:55:14.457Z,1.38
2022-09-07T16:00:32.119Z,1.55
2022-09-07T16:03:08.102Z,1.20
2022-09-07T16:05:36.081Z,1.23
2022-09-07T16:10:55.689Z,1.35
2022-09-07T16:13:24.549Z,1.38
2022-09-07T16:15:52.084Z,1.15
2022-09-07T16:18:19.373Z,1.02
2022-09-07T16:20:47.294Z,1.15
2022-09-07T16:23:16.829Z,1.20
2022-09-07T16:25:57.310Z,1.73
2022-09-07T16:28:24.734Z,4.10
2022-09-07T16:30:51.810Z,3.80
2022-09-07T16:33:18.956Z,2.95
2022-09-07T16:35:59.476Z,2.08
2022-09-07T16:41:20.639Z,2.05
2022-09-07T16:43:47.947Z,1.70
2022-09-07T16:46:17.770Z,1.50
2022-09-07T16:48:45.587Z,1.20
2022-09-07T16:51:14.858Z,1.63
2022-09-07T16:53:42.886Z,1.35
2022-09-07T16:56:16.984Z,1.10
2022-09-07T16:58:46.300Z,0.93
2022-09-07T17:01:16.230Z,1.23
2022-09-07T17:03:44.077Z,1.42
2022-09-07T17:06:12.795Z,1.30
2022-09-07T17:08:40.735Z,1.20
2022-09-07T17:11:10.611Z,0.95
2022-09-07T17:13:39.566Z,1.40
2022-09-07T17:16:12.044Z,1.20
2022-09-07T17:21:36.630Z,1.10
2022-09-07T17:24:05.644Z,1.20
2022-09-07T17:26:32.969Z,1.40
2022-09-07T17:29:01.123Z,1.20
2022-09-07T17:34:19.884Z,1.55
2022-09-07T17:36:47.646Z,0.93
2022-09-07T17:39:17.735Z,1.30
2022-09-07T17:41:47.184Z,1.30
2022-09-07T17:44:14.510Z,1.30
2022-09-07T17:46:41.635Z,1.85
2022-09-07T17:49:16.888Z,1.23
2022-09-07T17:51:45.522Z,1.23
2022-09-07T17:54:15.907Z,1.23
2022-09-07T18:01:58.582Z,1.23
2022-09-07T18:04:26.161Z,1.30
2022-09-07T18:06:54.522Z,1.58
2022-09-07T18:09:22.044Z,1.40
2022-09-07T18:11:50.297Z,1.60
2022-09-07T18:14:19.518Z,1.63
2022-09-07T18:16:50.110Z,1.95
2022-09-07T18:19:18.703Z,1.52
2022-09-07T18:21:48.104Z,2.08
2022-09-07T18:24:18.899Z,2.25
2022-09-07T18:26:51.796Z,2.58
2022-09-07T18:29:29.513Z,1.75
2022-09-07T18:31:59.639Z,2.47
2022-09-07T18:34:28.787Z,2.75
2022-09-07T18:36:56.153Z,3.50
2022-09-07T18:39:23.326Z,2.70
2022-09-07T18:41:50.582Z,3.50
2022-09-07T18:47:06.599Z,3.28
2022-09-07T18:49:34.380Z,3.15
2022-09-07T18:54:50.319Z,3.13
2022-09-07T18:57:17.506Z,4.45
2022-09-07T18:59:44.830Z,4.05
2022-09-07T19:02:12.405Z,4.35
2022-09-07T19:07:29.934Z,3.40
2022-09-07T19:09:58.371Z,2.75
2022-09-07T19:12:25.421Z,2.53
2022-09-07T19:14:52.527Z,2.38
2022-09-07T19:17:19.777Z,2.70
2022-09-07T19:19:47.279Z,2.38
2022-09-07T19:22:14.391Z,2.50
2022-09-07T19:24:41.470Z,2.50
2022-09-07T19:27:08.457Z,2.17
2022-09-07T19:29:35.681Z,2.10
2022-09-07T19:32:07.006Z,2.50
2022-09-07T19:34:36.573Z,2.58
2022-09-07T19:37:06.987Z,2.40
2022-09-07T19:42:02.748Z,2.42
2022-09-07T19:44:30.028Z,2.60
2022-09-07T19:46:57.266Z,2.40
2022-09-07T19:49:24.543Z,2.83
2022-09-07T19:51:52.294Z,2.30
2022-09-07T19:54:19.624Z,2.22
2022-09-07T19:56:46.964Z,2.50
2022-09-07T19:59:14.711Z,2.28
2022-09-07T20:01:46.479Z,2.42
2022-09-07T20:04:20.342Z,1.85
2022-09-07T20:06:50.386Z,2.33
2022-09-07T20:09:19.093Z,2.30
2022-09-07T20:11:47.846Z,2.00
2022-09-07T20:14:18.573Z,2.00
2022-09-07T20:16:45.708Z,2.33
2022-09-07T20:19:16.390Z,2.38
2022-09-07T20:21:43.688Z,2.40
2022-09-07T20:24:14.795Z,2.22
2022-09-07T20:26:41.897Z,2.00
2022-09-07T20:29:27.682Z,2.35
2022-09-07T20:31:59.314Z,2.25
2022-09-07T20:34:27.588Z,2.30
2022-09-07T20:36:55.184Z,2.10
2022-09-07T20:39:22.288Z,2.25
2022-09-07T20:41:49.476Z,2.38
2022-09-07T20:44:17.379Z,2.83
2022-09-07T20:46:44.643Z,2.75
2022-09-07T20:49:11.832Z,2.75
2022-09-07T20:51:39.132Z,2.40
2022-09-07T20:54:07.373Z,2.78
2022-09-07T20:56:34.893Z,2.85
2022-09-07T20:59:03.753Z,2.70
2022-09-07T21:01:32.310Z,2.92
2022-09-07T21:04:02.152Z,2.65
2022-09-07T21:06:31.089Z,2.83
2022-09-07T21:08:58.635Z,2.63
2022-09-07T21:11:29.281Z,2.80
2022-09-07T21:13:58.514Z,3.00
2022-09-07T21:16:26.607Z,2.95
2022-09-07T21:18:56.547Z,2.70
2022-09-07T21:21:24.961Z,2.90
2022-09-07T21:24:00.289Z,3.08
2022-09-07T21:26:28.667Z,2.97
2022-09-07T21:28:57.467Z,2.78
2022-09-07T21:31:25.569Z,3.40
2022-09-07T21:33:57.853Z,2.95
2022-09-07T21:36:25.758Z,2.92
2022-09-07T21:38:54.453Z,3.60
2022-09-07T21:41:23.318Z,3.78
2022-09-07T21:43:55.481Z,3.58
2022-09-07T21:46:23.085Z,3.20
2022-09-07T21:48:50.236Z,3.13
2022-09-07T21:51:17.734Z,3.40
2022-09-07T21:53:44.780Z,3.33
2022-09-07T21:56:14.530Z,3.55
2022-09-07T21:58:43.850Z,3.72
2022-09-07T22:01:17.135Z,3.40
2022-09-07T22:03:46.656Z,3.55
2022-09-07T22:06:15.073Z,3.58
2022-09-07T22:08:42.916Z,3.40
2022-09-07T22:11:13.787Z,3.50
2022-09-07T22:13:41.606Z,3.80
2022-09-07T22:16:09.271Z,3.65
2022-09-07T22:18:38.108Z,3.70
2022-09-07T22:21:15.752Z,3.25
2022-09-07T22:23:45.670Z,3.28
2022-09-07T22:26:14.406Z,3.10
2022-09-07T22:28:42.234Z,3.40
2022-09-07T22:31:15.511Z,3.30
2022-09-07T22:33:43.568Z,3.22
2022-09-07T22:36:15.160Z,2.83
2022-09-07T22:38:44.043Z,3.45
2022-09-07T22:41:22.305Z,2.90
2022-09-07T22:43:51.136Z,3.78
2022-09-07T22:46:20.527Z,3.83
2022-09-07T22:48:48.518Z,4.07
2022-09-07T22:51:16.558Z,3.92
2022-09-07T22:53:44.699Z,3.83
2022-09-07T22:56:20.529Z,3.90
2022-09-07T22:58:50.228Z,3.58
2022-09-07T23:01:17.989Z,3.85
2022-09-07T23:03:45.713Z,4.40
2022-09-07T23:06:23.391Z,4.32
2022-09-07T23:08:51.600Z,3.83
2022-09-07T23:11:20.030Z,4.18
2022-09-07T23:13:51.261Z,3.70
2022-09-07T23:16:18.494Z,4.28
2022-09-07T23:18:46.293Z,4.07
2022-09-07T23:21:13.379Z,4.10
2022-09-07T23:23:40.638Z,3.63
2022-09-07T23:26:07.744Z,3.55
2022-09-07T23:28:35.149Z,3.60
2022-09-07T23:31:02.454Z,3.92
2022-09-07T23:33:30.581Z,3.90
2022-09-07T23:36:04.698Z,4.65
2022-09-07T23:38:32.615Z,4.03
2022-09-07T23:41:00.380Z,3.83
2022-09-07T23:43:29.090Z,4.13
2022-09-07T23:45:56.690Z,3.90
2022-09-07T23:48:24.166Z,3.78
2022-09-07T23:50:51.629Z,4.00
2022-09-07T23:53:19.261Z,3.95
2022-09-07T23:55:50.386Z,4.00
2022-09-07T23:58:18.148Z,3.88
